createdAt,value
2018-11-20T00:24:57.885Z,-0.2
2018-11-20T00:25:47.374Z,-0.2
2018-11-20T00:26:37.710Z,-0.1
2018-11-20T00:27:27.774Z,-0.1
2018-11-20T00:28:18.673Z,-0.1
2018-11-20T00:29:07.406Z,-0.1
2018-11-20T00:29:57.996Z,-0.2
2018-11-20T00:30:47.802Z,-0.2
2018-11-20T00:31:38.076Z,-0.2
2018-11-20T00:32:27.636Z,-0.2
2018-11-20T00:33:17.900Z,-0.2
2018-11-20T00:34:07.948Z,-0.3
2018-11-20T00:34:58.000Z,-0.3
2018-11-20T00:35:48.955Z,-0.3
2018-11-20T00:36:38.488Z,-0.3
2018-11-20T00:37:28.791Z,-0.2
2018-11-20T00:38:18.850Z,-0.3
2018-11-20T00:39:08.613Z,-0.3
2018-11-20T00:39:59.229Z,-0.3
2018-11-20T00:40:49.270Z,-0.3
2018-11-20T00:41:39.344Z,-0.3
2018-11-20T00:42:29.915Z,-0.3
2018-11-20T00:43:18.610Z,-0.3
2018-11-20T00:44:09.219Z,-0.4
2018-11-20T00:44:59.355Z,-0.4
2018-11-20T00:45:49.584Z,-0.3
2018-11-20T00:46:39.412Z,-0.3
2018-11-20T00:47:28.772Z,-0.3
2018-11-20T00:48:19.504Z,-0.3
2018-11-20T00:49:09.302Z,-0.3
2018-11-20T00:49:59.337Z,-0.3
2018-11-20T00:50:50.215Z,-0.3
2018-11-20T00:51:39.457Z,-0.3
2018-11-20T00:52:28.934Z,-0.3
2018-11-20T00:53:19.294Z,-0.3
2018-11-20T00:54:09.744Z,-0.3
2018-11-20T00:54:59.509Z,-0.3
2018-11-20T00:55:49.839Z,-0.2
2018-11-20T00:56:39.877Z,-0.1
2018-11-20T00:57:30.187Z,-0.1
2018-11-20T00:58:19.950Z,-0.1
2018-11-20T00:59:10.829Z,-0.2
2018-11-20T00:59:59.739Z,-0.2
2018-11-20T01:00:50.106Z,-0.2
2018-11-20T01:01:40.446Z,-0.2
2018-11-20T01:02:29.829Z,-0.2
2018-11-20T01:03:20.573Z,-0.1
2018-11-20T01:04:10.051Z,-0.2
2018-11-20T01:05:00.101Z,-0.1
2018-11-20T01:05:50.744Z,-0.1
2018-11-20T01:06:40.814Z,-0.2
2018-11-20T01:07:30.871Z,-0.3
2018-11-20T01:08:20.541Z,-0.2
2018-11-20T01:09:10.961Z,-0.1
2018-11-20T01:10:00.553Z,-0.1
2018-11-20T01:10:51.146Z,-0.1
2018-11-20T01:11:41.182Z,-0.1
2018-11-20T01:12:31.462Z,-0.1
2018-11-20T01:13:20.666Z,-0.2
2018-11-20T01:14:11.328Z,-0.2
2018-11-20T01:15:00.585Z,-0.3
2018-11-20T01:15:51.704Z,-0.2
2018-11-20T01:16:40.925Z,-0.1
2018-11-20T01:17:31.533Z,-0.1
2018-11-20T01:18:21.237Z,-0.1
2018-11-20T01:19:11.403Z,-0.1
2018-11-20T01:20:01.458Z,-0.1
2018-11-20T01:20:51.288Z,-0.1
2018-11-20T01:21:41.850Z,-0.1
2018-11-20T01:22:31.918Z,-0.1
2018-11-20T01:23:21.981Z,-0.1
2018-11-20T01:24:11.470Z,-0.1
2018-11-20T01:25:01.618Z,0
2018-11-20T01:25:52.159Z,-0.1
2018-11-20T01:26:41.705Z,-0.1
2018-11-20T01:27:31.765Z,-0.1
2018-11-20T01:28:22.034Z,-0.1
2018-11-20T01:29:11.605Z,-0.1
2018-11-20T01:30:01.646Z,-0.1
2018-11-20T01:30:52.494Z,-0.1
2018-11-20T01:31:42.568Z,-0.1
2018-11-20T01:32:32.026Z,-0.1
2018-11-20T01:33:22.674Z,0
2018-11-20T01:34:12.247Z,0.1
2018-11-20T01:35:01.615Z,0
2018-11-20T01:35:52.575Z,-0.1
2018-11-20T01:36:41.862Z,-0.1
2018-11-20T01:37:32.189Z,0
2018-11-20T01:38:22.736Z,0
2018-11-20T01:39:12.679Z,0
2018-11-20T01:40:02.334Z,0
2018-11-20T01:40:52.712Z,0.1
2018-11-20T01:41:42.747Z,0.1
2018-11-20T01:42:32.243Z,0
2018-11-20T01:43:22.480Z,0
2018-11-20T01:44:13.253Z,0
2018-11-20T01:45:02.663Z,0.1
2018-11-20T01:45:53.333Z,0.1
2018-11-20T01:46:42.635Z,0.1
2018-11-20T01:47:33.644Z,0.1
2018-11-20T01:48:23.687Z,0.1
2018-11-20T01:49:12.814Z,0.1
2018-11-20T01:50:03.589Z,0.1
2018-11-20T01:50:53.501Z,0.1
2018-11-20T01:51:43.388Z,0.1
2018-11-20T01:52:33.143Z,0.1
2018-11-20T01:53:24.095Z,0
2018-11-20T01:54:14.111Z,0.1
2018-11-20T01:55:04.186Z,0.1
2018-11-20T01:55:54.283Z,0.1
2018-11-20T01:56:43.965Z,0.1
2018-11-20T01:57:33.393Z,0.1
2018-11-20T01:58:24.433Z,0.1
2018-11-20T01:59:14.488Z,0.1
2018-11-20T02:00:03.765Z,0.1
2018-11-20T02:00:54.325Z,0.1
2018-11-20T02:01:44.620Z,0.2
2018-11-20T02:02:34.672Z,0.1
2018-11-20T02:03:24.778Z,0.2
2018-11-20T02:04:15.174Z,0.2
2018-11-20T02:05:04.302Z,0.1
2018-11-20T02:05:55.178Z,0.1
2018-11-20T02:06:44.995Z,0.1
2018-11-20T02:07:35.314Z,0.1
2018-11-20T02:08:24.925Z,0.1
2018-11-20T02:09:15.364Z,0.1
2018-11-20T02:10:05.256Z,0.1
2018-11-20T02:10:55.274Z,0.1
2018-11-20T02:11:45.073Z,0.1
2018-11-20T02:12:35.404Z,0.2
2018-11-20T02:13:24.989Z,0.1
2018-11-20T02:14:15.513Z,0.1
2018-11-20T02:15:05.560Z,0.1
2018-11-20T02:15:55.614Z,0.1
2018-11-20T02:16:45.460Z,0.1
2018-11-20T02:17:35.435Z,0.1
2018-11-20T02:18:25.515Z,0.1
2018-11-20T02:19:15.912Z,0.1
2018-11-20T02:20:05.154Z,0.1
2018-11-20T02:20:55.982Z,0.1
2018-11-20T02:21:46.334Z,0.1
2018-11-20T02:22:35.844Z,0.1
2018-11-20T02:23:25.866Z,0.1
2018-11-20T02:24:15.824Z,0.1
2018-11-20T02:25:06.001Z,0.1
2018-11-20T02:25:56.328Z,0.1
2018-11-20T02:26:45.924Z,0.1
2018-11-20T02:27:36.144Z,0.1
2018-11-20T02:28:26.833Z,0.1
2018-11-20T02:29:16.301Z,0.2
2018-11-20T02:30:06.444Z,0.2
2018-11-20T02:30:56.413Z,0.1
2018-11-20T02:31:46.639Z,0.1
2018-11-20T02:32:36.544Z,0.1
2018-11-20T02:33:27.145Z,0.1
2018-11-20T02:34:16.938Z,0.1
2018-11-20T02:35:06.973Z,0.1
2018-11-20T02:35:56.482Z,0.1
2018-11-20T02:36:47.078Z,0
2018-11-20T02:37:37.188Z,0
2018-11-20T02:38:26.915Z,0
2018-11-20T02:39:16.994Z,0
2018-11-20T02:40:07.352Z,0.1
2018-11-20T02:40:57.258Z,0.1
2018-11-20T02:41:47.541Z,0.1
2018-11-20T02:42:37.540Z,0.1
2018-11-20T02:43:26.704Z,0.1
2018-11-20T02:44:17.415Z,0.1
2018-11-20T02:45:07.100Z,0.1
2018-11-20T02:45:57.392Z,0.1
2018-11-20T02:46:47.062Z,0.1
2018-11-20T02:47:37.583Z,0.1
2018-11-20T02:48:30.422Z,0.1
2018-11-20T02:49:17.097Z,0.1
2018-11-20T02:50:08.299Z,0.1
2018-11-20T02:50:57.800Z,0.1
2018-11-20T02:51:48.138Z,0.2
2018-11-20T02:52:38.183Z,0.2
2018-11-20T02:53:28.220Z,0.2
2018-11-20T02:54:18.055Z,0.2
2018-11-20T02:55:08.127Z,0.3
2018-11-20T02:55:57.962Z,0.2
2018-11-20T02:56:48.234Z,0.3
2018-11-20T02:57:38.076Z,0.2
2018-11-20T02:58:28.299Z,0.3
2018-11-20T02:59:18.152Z,0.3
2018-11-20T03:00:08.710Z,0.2
2018-11-20T03:00:58.308Z,0.3
2018-11-20T03:01:48.856Z,0.3
2018-11-20T03:02:38.609Z,0.3
2018-11-20T03:03:28.804Z,0.3
2018-11-20T03:04:18.719Z,0.3
2018-11-20T03:05:08.494Z,0.3
2018-11-20T03:05:58.567Z,0.4
2018-11-20T03:06:48.991Z,0.3
2018-11-20T03:07:38.697Z,0.3
2018-11-20T03:08:29.584Z,0.4
2018-11-20T03:09:19.106Z,0.4
2018-11-20T03:10:09.254Z,0.4
2018-11-20T03:10:59.581Z,0.3
2018-11-20T03:11:48.981Z,0.3
2018-11-20T03:12:38.838Z,0.4
2018-11-20T03:13:29.368Z,0.4
2018-11-20T03:14:19.136Z,0.4
2018-11-20T03:15:09.281Z,0.4
2018-11-20T03:15:59.570Z,0.4
2018-11-20T03:16:49.229Z,0.4
2018-11-20T03:17:40.058Z,0.4
2018-11-20T03:18:30.305Z,0.4
2018-11-20T03:19:19.501Z,0.4
2018-11-20T03:20:09.960Z,0.4
2018-11-20T03:21:00.508Z,0.4
2018-11-20T03:21:50.230Z,0.4
2018-11-20T03:22:40.011Z,0.4
2018-11-20T03:23:30.073Z,0.4
2018-11-20T03:24:19.853Z,0.4
2018-11-20T03:25:10.417Z,0.4
2018-11-20T03:26:00.813Z,0.4
2018-11-20T03:26:50.612Z,0.5
2018-11-20T03:27:40.652Z,0.5
2018-11-20T03:28:30.220Z,0.5
2018-11-20T03:29:20.502Z,0.5
2018-11-20T03:30:10.843Z,0.5
2018-11-20T03:31:00.685Z,0.5
2018-11-20T03:31:50.647Z,0.5
2018-11-20T03:32:40.582Z,0.6
2018-11-20T03:33:30.802Z,0.5
2018-11-20T03:34:21.194Z,0.5
2018-11-20T03:35:11.192Z,0.6
2018-11-20T03:36:01.221Z,0.6
2018-11-20T03:36:51.096Z,0.6
2018-11-20T03:37:41.329Z,0.5
2018-11-20T03:38:30.537Z,0.5
2018-11-20T03:39:21.186Z,0.4
2018-11-20T03:40:11.600Z,0.4
2018-11-20T03:41:01.597Z,0.5
2018-11-20T03:41:51.672Z,0.6
2018-11-20T03:42:41.229Z,0.5
2018-11-20T03:43:31.763Z,0.5
2018-11-20T03:44:22.389Z,0.5
2018-11-20T03:45:12.132Z,0.6
2018-11-20T03:46:01.894Z,0.6
2018-11-20T03:46:51.998Z,0.5
2018-11-20T03:47:41.627Z,0.5
2018-11-20T03:48:31.576Z,0.5
2018-11-20T03:49:21.664Z,0.5
2018-11-20T03:50:11.941Z,0.5
2018-11-20T03:51:02.002Z,0.6
2018-11-20T03:51:52.328Z,0.6
2018-11-20T03:52:41.778Z,0.6
2018-11-20T03:53:32.189Z,0.6
2018-11-20T03:54:21.967Z,0.6
2018-11-20T03:55:12.543Z,0.6
2018-11-20T03:56:02.346Z,0.6
2018-11-20T03:56:52.408Z,0.7
2018-11-20T03:57:42.266Z,0.7
2018-11-20T03:58:32.253Z,0.6
2018-11-20T03:59:22.908Z,0.6
2018-11-20T04:00:12.356Z,0.6
2018-11-20T04:01:02.421Z,0.6
2018-11-20T04:01:52.855Z,0.6
2018-11-20T04:02:42.812Z,0.6
2018-11-20T04:03:32.858Z,0.6
2018-11-20T04:04:22.630Z,0.6
2018-11-20T04:05:13.595Z,0.6
2018-11-20T04:06:03.060Z,0.6
2018-11-20T04:06:52.831Z,0.6
2018-11-20T04:07:43.452Z,0.6
2018-11-20T04:08:33.525Z,0.6
2018-11-20T04:09:23.305Z,0.6
2018-11-20T04:10:13.595Z,0.6
2018-11-20T04:11:03.123Z,0.6
2018-11-20T04:11:53.189Z,0.6
2018-11-20T04:12:44.065Z,0.6
2018-11-20T04:13:33.848Z,0.6
2018-11-20T04:14:24.205Z,0.6
2018-11-20T04:15:12.922Z,0.6
2018-11-20T04:16:04.049Z,0.7
2018-11-20T04:16:53.509Z,0.7
2018-11-20T04:17:44.868Z,0.7
2018-11-20T04:18:34.209Z,0.8
2018-11-20T04:19:24.158Z,0.7
2018-11-20T04:20:13.542Z,0.8
2018-11-20T04:21:03.832Z,0.7
2018-11-20T04:21:53.587Z,0.7
2018-11-20T04:22:43.637Z,0.8
2018-11-20T04:23:34.154Z,0.8
2018-11-20T04:24:24.623Z,0.8
2018-11-20T04:25:30.511Z,0.8
2018-11-20T04:26:04.746Z,0.8
2018-11-20T04:26:55.046Z,0.8
2018-11-20T04:27:44.845Z,0.8
2018-11-20T04:28:34.611Z,0.8
2018-11-20T04:29:23.896Z,0.8
2018-11-20T04:30:15.282Z,0.8
2018-11-20T04:31:05.864Z,0.9
2018-11-20T04:31:55.226Z,0.9
2018-11-20T04:32:44.987Z,0.9
2018-11-20T04:33:34.998Z,0.9
2018-11-20T04:34:25.319Z,0.9
2018-11-20T04:35:15.391Z,0.9
2018-11-20T04:36:05.416Z,0.9
2018-11-20T04:36:55.258Z,0.9
2018-11-20T09:08:39.607Z,4.9
2018-11-20T09:09:29.372Z,5
2018-11-20T09:10:18.899Z,5.1
2018-11-20T09:11:08.389Z,5.1
2018-11-20T09:11:59.328Z,5
2018-11-20T09:12:48.904Z,5
2018-11-20T09:13:39.581Z,5
2018-11-20T09:14:29.198Z,5
2018-11-20T09:15:19.331Z,5
2018-11-20T09:16:09.402Z,5
2018-11-20T09:16:59.956Z,5.1
2018-11-20T09:17:49.668Z,5
2018-11-20T09:18:39.767Z,5
2018-11-20T09:19:30.156Z,5.1
2018-11-20T09:20:21.309Z,5.1
2018-11-20T09:21:10.586Z,5.1
2018-11-20T09:21:59.715Z,5.1
2018-11-20T09:22:50.366Z,5.1
2018-11-20T09:23:40.383Z,5.1
2018-11-20T09:24:30.163Z,5.1
2018-11-20T09:25:19.369Z,5.1
2018-11-20T09:26:10.087Z,5.1
2018-11-20T09:27:00.443Z,5.1
2018-11-20T09:27:50.765Z,5.2
2018-11-20T09:28:40.261Z,5.3
2018-11-20T09:29:30.511Z,5.2
2018-11-20T09:30:20.119Z,5.1
2018-11-20T09:31:10.168Z,5.1
2018-11-20T09:32:00.101Z,5.1
2018-11-20T09:32:51.021Z,5.1
2018-11-20T09:33:40.611Z,5.1
2018-11-20T09:34:31.823Z,5.1
2018-11-20T09:35:21.806Z,5.1
2018-11-20T09:36:11.020Z,5.1
2018-11-20T09:37:00.840Z,5.1
2018-11-20T09:37:50.847Z,5.1
2018-11-20T09:38:40.893Z,5.1
2018-11-20T09:39:31.563Z,5.1
2018-11-20T09:40:20.409Z,5.1
2018-11-20T09:41:11.041Z,5.1
2018-11-20T09:42:01.365Z,5.1
2018-11-20T09:42:51.777Z,5.1
2018-11-20T09:43:40.939Z,5.1
2018-11-20T09:44:31.337Z,5.2
2018-11-20T09:45:20.757Z,5.1
2018-11-20T09:46:11.395Z,5.2
2018-11-20T09:47:01.244Z,5.2
2018-11-20T09:47:51.579Z,5.1
2018-11-20T09:48:41.677Z,5.2
2018-11-20T09:49:32.215Z,5.2
2018-11-20T09:50:21.920Z,5.2
2018-11-20T09:51:11.713Z,5.2
2018-11-20T09:52:01.588Z,5.2
2018-11-20T09:52:52.651Z,5.1
2018-11-20T09:53:41.929Z,5.1
2018-11-20T09:54:32.622Z,5.2
2018-11-20T09:55:22.018Z,5.2
2018-11-20T09:56:12.087Z,5.3
2018-11-20T09:57:02.162Z,5.2
2018-11-20T09:57:52.552Z,5.2
2018-11-20T09:58:42.553Z,5.3
2018-11-20T09:59:33.318Z,5.2
2018-11-20T10:00:22.954Z,5.1
2018-11-20T10:01:12.448Z,5.2
2018-11-20T10:02:02.497Z,5.2
2018-11-20T10:02:53.134Z,5.2
2018-11-20T10:03:42.542Z,5.2
2018-11-20T10:04:32.091Z,5.2
2018-11-20T10:05:23.264Z,5.2
2018-11-20T10:06:12.804Z,5.2
2018-11-20T10:07:03.734Z,5.3
2018-11-20T10:07:53.091Z,5.3
2018-11-20T10:08:43.412Z,5.3
2018-11-20T10:09:33.622Z,5.3
2018-11-20T10:10:22.196Z,5.3
2018-11-20T10:11:13.701Z,5.3
2018-11-20T10:12:03.193Z,5.3
2018-11-20T10:12:53.320Z,5.3
2018-11-20T10:13:43.573Z,5.3
2018-11-20T10:14:34.158Z,5.2
2018-11-20T10:15:23.706Z,5.3
2018-11-20T10:16:13.590Z,5.2
2018-11-20T10:17:03.240Z,5.2
2018-11-20T10:17:54.178Z,5.2
2018-11-20T10:18:43.650Z,5.1
2018-11-20T10:19:33.987Z,5.2
2018-11-20T10:20:24.340Z,5.2
2018-11-20T10:21:14.200Z,5.2
2018-11-20T10:22:04.887Z,5.2
2018-11-20T10:22:53.357Z,5.2
2018-11-20T10:23:43.879Z,5.2
2018-11-20T10:24:34.562Z,5.2
2018-11-20T10:25:25.157Z,5.2
2018-11-20T10:26:15.188Z,5.2
2018-11-20T10:27:04.514Z,5.2
2018-11-20T10:27:53.866Z,5.2
2018-11-20T10:28:44.660Z,5.3
2018-11-20T10:29:34.984Z,5.3
2018-11-20T10:30:24.462Z,5.2
2018-11-20T10:31:15.083Z,5.2
2018-11-20T10:32:04.862Z,5.3
2018-11-20T10:32:55.239Z,5.2
2018-11-20T10:33:45.229Z,5.1
2018-11-20T10:34:35.179Z,5.1
2018-11-20T10:35:24.949Z,5.2
2018-11-20T10:36:15.434Z,5.1
2018-11-20T10:37:04.626Z,5.1
2018-11-20T10:37:54.684Z,5.1
2018-11-20T10:38:45.039Z,5.1
2018-11-20T10:39:35.426Z,5.1
2018-11-20T10:40:25.135Z,5.1
2018-11-20T10:41:16.049Z,5.1
2018-11-20T10:42:04.746Z,5.1
2018-11-20T10:42:55.148Z,5.2
2018-11-20T10:43:45.754Z,5.3
2018-11-20T10:44:35.418Z,5.3
2018-11-20T10:45:25.518Z,5.3
2018-11-20T10:46:15.963Z,5.3
2018-11-20T10:47:05.654Z,5.4
2018-11-20T10:47:55.371Z,5.4
2018-11-20T10:48:45.798Z,5.4
2018-11-20T10:49:36.064Z,5.5
2018-11-20T10:50:26.460Z,5.6
2018-11-20T10:51:16.509Z,5.6
2018-11-20T10:52:05.775Z,5.7
2018-11-20T10:53:46.386Z,5.6
2018-11-20T10:54:35.738Z,5.6
2018-11-20T10:55:26.490Z,5.6
2018-11-20T10:56:15.801Z,5.6
2018-11-20T10:57:06.324Z,5.6
2018-11-20T10:57:56.398Z,5.6
2018-11-20T10:58:46.689Z,5.6
2018-11-20T10:59:37.333Z,5.6
2018-11-20T11:00:26.635Z,5.6
2018-11-20T11:01:17.560Z,5.6
2018-11-20T11:02:06.460Z,5.6
2018-11-20T11:02:56.765Z,5.6
2018-11-20T11:03:46.347Z,5.7
2018-11-20T11:04:36.850Z,5.6
2018-11-20T11:05:26.862Z,5.7
2018-11-20T11:06:17.056Z,5.7
2018-11-20T11:07:10.298Z,5.9
2018-11-20T11:07:57.908Z,5.9
2018-11-20T11:08:47.690Z,5.9
2018-11-20T11:09:36.990Z,5.9
2018-11-20T11:10:26.956Z,5.8
2018-11-20T11:11:17.914Z,5.8
2018-11-20T11:12:09.244Z,5.9
2018-11-20T11:12:57.964Z,5.9
2018-11-20T11:13:48.319Z,6
2018-11-20T11:14:38.292Z,5.9
2018-11-20T11:15:27.576Z,5.9
2018-11-20T11:16:17.647Z,5.8
2018-11-20T11:17:08.522Z,5.9
2018-11-20T11:17:58.050Z,5.9
2018-11-20T11:18:47.916Z,5.9
2018-11-20T11:19:38.672Z,5.9
2018-11-20T11:20:28.842Z,5.9
2018-11-20T11:21:17.941Z,5.9
2018-11-20T11:22:08.639Z,5.9
2018-11-20T11:23:00.127Z,5.9
2018-11-20T11:23:48.487Z,6
2018-11-20T11:24:38.003Z,6.1
2018-11-20T11:25:28.584Z,6.1
2018-11-20T11:26:18.149Z,6.2
2018-11-20T11:27:08.139Z,6.2
2018-11-20T11:27:58.451Z,6.3
2018-11-20T11:28:52.096Z,6.3
2018-11-20T11:29:38.881Z,6.3
2018-11-20T11:30:28.614Z,6.3
2018-11-20T11:31:18.974Z,6.1
2018-11-20T11:32:08.755Z,6
2018-11-20T11:32:58.323Z,6
2018-11-20T11:33:48.860Z,5.9
2018-11-20T11:34:39.496Z,5.9
2018-11-20T11:35:28.996Z,5.9
2018-11-20T11:36:19.008Z,6
2018-11-20T11:37:09.756Z,6
2018-11-20T11:37:59.439Z,5.9
2018-11-20T11:38:49.777Z,5.9
2018-11-20T11:39:39.623Z,5.9
2018-11-20T11:40:29.632Z,5.9
2018-11-20T11:41:19.665Z,5.9
2018-11-20T11:42:09.559Z,5.8
2018-11-20T11:42:58.900Z,5.8
2018-11-20T11:43:49.610Z,5.8
2018-11-20T11:44:39.932Z,5.8
2018-11-20T11:45:28.882Z,5.7
2018-11-20T11:46:19.605Z,5.7
2018-11-20T11:47:10.345Z,5.7
2018-11-20T11:48:00.105Z,5.8
2018-11-20T11:48:49.618Z,5.7
2018-11-20T11:49:39.972Z,5.7
2018-11-20T11:50:29.544Z,5.7
2018-11-20T11:51:20.042Z,5.6
2018-11-20T11:52:10.499Z,5.7
2018-11-20T11:53:00.459Z,5.7
2018-11-20T11:53:50.115Z,5.7
2018-11-20T11:54:39.997Z,5.8
2018-11-20T11:55:30.365Z,5.8
2018-11-20T11:56:20.712Z,5.7
2018-11-20T11:57:10.742Z,5.8
2018-11-20T11:58:00.414Z,5.8
2018-11-20T11:58:50.659Z,5.8
2018-11-20T11:59:40.751Z,5.8
2018-11-20T12:00:31.019Z,5.8
2018-11-20T12:01:20.850Z,5.8
2018-11-20T12:03:51.042Z,5.7
2018-11-20T12:04:41.567Z,5.7
2018-11-20T12:05:30.899Z,5.7
2018-11-20T12:06:20.826Z,5.8
2018-11-20T12:07:11.579Z,5.8
2018-11-20T12:08:01.299Z,5.7
2018-11-20T12:08:51.549Z,5.8
2018-11-20T12:09:41.065Z,5.8
2018-11-20T12:10:36.052Z,5.8
2018-11-20T12:11:21.790Z,5.8
2018-11-20T12:12:11.313Z,5.8
2018-11-20T12:13:01.886Z,5.9
2018-11-20T12:13:51.136Z,5.9
2018-11-20T12:14:42.329Z,5.9
2018-11-20T12:15:31.996Z,5.9
2018-11-20T12:16:21.797Z,5.9
2018-11-20T12:17:11.838Z,5.9
2018-11-20T12:18:02.203Z,5.9
2018-11-20T12:18:51.575Z,5.9
2018-11-20T12:19:41.793Z,5.8
2018-11-20T12:20:31.805Z,5.8
2018-11-20T12:21:21.468Z,5.8
2018-11-20T12:22:11.997Z,5.8
2018-11-20T12:23:01.775Z,5.8
2018-11-20T12:23:52.130Z,5.9
2018-11-20T12:24:42.143Z,5.8
2018-11-20T12:25:31.927Z,5.8
2018-11-20T12:26:22.509Z,5.8
2018-11-20T12:27:12.347Z,5.8
2018-11-20T12:28:02.320Z,5.8
2018-11-20T12:28:58.504Z,5.9
2018-11-20T12:29:43.352Z,5.8
2018-11-20T12:30:32.588Z,5.8
2018-11-20T12:31:22.850Z,5.8
2018-11-20T12:32:12.901Z,5.8
2018-11-20T12:33:03.215Z,5.8
2018-11-20T12:33:52.712Z,5.8
2018-11-20T12:34:43.933Z,5.8
2018-11-20T12:35:40.502Z,5.8
2018-11-20T12:36:23.217Z,5.8
2018-11-20T12:37:13.632Z,5.8
2018-11-20T12:38:03.712Z,5.8
2018-11-20T12:38:53.074Z,5.9
2018-11-20T12:39:43.627Z,5.9
2018-11-20T12:40:34.209Z,5.9
2018-11-20T12:41:23.731Z,5.9
2018-11-20T12:42:13.594Z,5.9
2018-11-20T12:43:03.972Z,5.9
2018-11-20T12:43:57.030Z,5.9
2018-11-20T12:44:43.579Z,5.9
2018-11-20T12:45:36.976Z,5.9
2018-11-20T12:46:22.889Z,5.9
2018-11-20T12:47:16.401Z,5.9
2018-11-20T12:48:06.421Z,5.8
2018-11-20T12:48:54.026Z,5.8
2018-11-20T12:49:44.055Z,5.8
2018-11-20T12:50:34.159Z,5.8
2018-11-20T12:51:25.419Z,5.8
2018-11-20T12:52:14.888Z,5.7
2018-11-20T12:53:05.241Z,5.7
2018-11-20T12:53:54.231Z,5.7
2018-11-20T12:54:44.478Z,5.7
2018-11-20T12:55:38.182Z,5.7
2018-11-20T12:56:24.573Z,5.7
2018-11-20T12:57:16.046Z,5.7
2018-11-20T12:58:04.785Z,5.7
2018-11-20T12:58:56.283Z,5.7
2018-11-20T12:59:44.788Z,5.7
2018-11-20T13:00:39.419Z,5.7
2018-11-20T13:01:24.752Z,5.7
2018-11-20T13:02:16.540Z,5.7
2018-11-20T13:03:05.318Z,5.7
2018-11-20T13:03:54.788Z,5.7
2018-11-20T13:04:45.131Z,5.6
2018-11-20T13:05:36.061Z,5.6
2018-11-20T13:06:25.342Z,5.6
2018-11-20T13:07:15.877Z,5.6
2018-11-20T13:08:05.192Z,5.6
2018-11-20T13:08:55.425Z,5.7
2018-11-20T13:09:45.844Z,5.6
2018-11-20T13:10:35.555Z,5.7
2018-11-20T13:11:25.572Z,5.6
2018-11-20T13:12:15.371Z,5.7
2018-11-20T13:13:05.714Z,5.6
2018-11-20T13:13:59.856Z,5.7
2018-11-20T13:14:46.142Z,5.6
2018-11-20T13:15:36.451Z,5.6
2018-11-20T13:16:26.254Z,5.6
2018-11-20T13:17:18.195Z,5.6
2018-11-20T13:18:09.096Z,5.6
2018-11-20T13:18:57.372Z,5.6
2018-11-20T13:19:46.472Z,5.6
2018-11-20T13:20:36.764Z,5.7
2018-11-20T13:21:26.018Z,5.7
2018-11-20T13:22:16.632Z,5.7
2018-11-20T13:23:06.679Z,5.6
2018-11-20T13:23:57.036Z,5.6
2018-11-20T13:24:46.606Z,5.6
2018-11-20T13:25:36.881Z,5.6
2018-11-20T13:26:27.531Z,5.7
2018-11-20T13:27:16.709Z,5.7
2018-11-20T13:28:06.496Z,5.7
2018-11-20T13:28:56.533Z,5.6
2018-11-20T13:29:46.884Z,5.7
2018-11-20T13:30:37.336Z,5.6
2018-11-20T13:31:27.116Z,5.6
2018-11-20T13:32:17.411Z,5.6
2018-11-20T13:33:07.404Z,5.6
2018-11-20T13:33:58.910Z,5.6
2018-11-20T13:34:51.099Z,5.6
2018-11-20T13:35:37.089Z,5.6
2018-11-20T13:36:27.618Z,5.6
2018-11-20T13:37:18.788Z,5.6
2018-11-20T13:38:07.181Z,5.6
2018-11-20T13:38:57.510Z,5.6
2018-11-20T13:39:47.848Z,5.7
2018-11-20T13:40:37.443Z,5.6
2018-11-20T13:41:27.502Z,5.6
2018-11-20T13:42:18.050Z,5.6
2018-11-20T13:43:08.054Z,5.6
2018-11-20T13:43:58.467Z,5.6
2018-11-20T13:44:47.737Z,5.6
2018-11-20T13:45:37.668Z,5.6
2018-11-20T13:46:28.035Z,5.6
2018-11-20T13:47:17.926Z,5.6
2018-11-20T13:48:08.140Z,5.6
2018-11-20T13:48:58.193Z,5.6
2018-11-20T13:49:47.987Z,5.6
2018-11-20T13:50:38.385Z,5.6
2018-11-20T14:07:27.094Z,5.4
2018-11-20T14:08:16.491Z,5.3
2018-11-20T14:09:06.543Z,5.3
2018-11-20T14:09:57.071Z,5.3
2018-11-20T14:10:46.923Z,5.3
2018-11-20T14:11:51.371Z,5.4
2018-11-20T14:12:26.403Z,5.3
2018-11-20T14:13:17.148Z,5.4
2018-11-20T14:14:07.191Z,5.4
2018-11-20T14:14:57.241Z,5.3
2018-11-20T14:15:47.005Z,5.3
2018-11-20T14:16:37.312Z,5.3
2018-11-20T14:17:27.130Z,5.3
2018-11-20T14:18:17.565Z,5.3
2018-11-20T14:19:21.792Z,5.3
2018-11-20T14:19:57.845Z,5.3
2018-11-20T14:20:47.349Z,5.3
2018-11-20T14:21:37.801Z,5.3
2018-11-20T14:22:26.895Z,5.3
2018-11-20T14:23:17.710Z,5.3
2018-11-20T14:24:07.380Z,5.3
2018-11-20T14:24:57.238Z,5.3
2018-11-20T14:25:47.956Z,5.3
2018-11-20T14:27:27.130Z,5.3
2018-11-20T14:28:32.777Z,5.3
2018-11-20T14:29:08.701Z,5.3
2018-11-20T14:30:13.207Z,5.3
2018-11-20T14:30:47.822Z,5.2
2018-11-20T14:31:37.842Z,5.3
2018-11-20T14:32:29.267Z,5.2
2018-11-20T14:33:18.225Z,5.2
2018-11-20T14:34:08.569Z,5.2
2018-11-20T14:34:58.848Z,5.2
2018-11-20T14:35:48.087Z,5.2
2018-11-20T14:36:53.379Z,5.3
2018-11-20T14:37:28.301Z,5.3
2018-11-20T14:38:18.245Z,5.2
2018-11-20T14:39:08.787Z,5.2
2018-11-20T14:39:58.387Z,5.2
2018-11-20T14:41:20.254Z,5.2
2018-11-20T14:41:38.892Z,5.1
2018-11-20T14:42:28.628Z,5.2
2018-11-20T14:43:18.949Z,5.2
2018-11-20T14:44:09.479Z,5.2
2018-11-20T14:44:59.037Z,5.1
2018-11-20T14:45:49.369Z,5.1
2018-11-20T14:46:39.336Z,5.1
2018-11-20T14:47:29.158Z,5.1
2018-11-20T14:48:18.678Z,5.1
2018-11-20T14:49:09.310Z,5.1
2018-11-20T14:49:59.383Z,5.1
2018-11-20T14:51:04.081Z,5.1
2018-11-20T14:51:38.988Z,5.1
2018-11-20T14:52:29.423Z,5.1
2018-11-20T14:53:19.891Z,5.1
2018-11-20T14:54:09.790Z,5.1
2018-11-20T14:54:59.436Z,5.1
2018-11-20T14:55:49.183Z,5.1
2018-11-20T14:56:40.388Z,5
2018-11-20T14:57:29.950Z,5.1
2018-11-20T14:58:20.105Z,5.1
2018-11-20T14:59:09.423Z,5
2018-11-20T15:00:00.245Z,5.1
2018-11-20T15:00:50.290Z,5.1
2018-11-20T15:01:39.872Z,5.1
2018-11-20T15:02:29.513Z,5.1
2018-11-20T15:03:20.580Z,5.1
2018-11-20T15:04:10.125Z,5.1
2018-11-20T15:05:00.633Z,5
2018-11-20T15:05:50.482Z,5.1
2018-11-20T15:06:40.408Z,5
2018-11-20T15:07:30.863Z,5
2018-11-20T15:08:20.632Z,5
2018-11-20T15:09:10.697Z,5
2018-11-20T15:10:00.447Z,5
2018-11-20T15:10:51.165Z,5
2018-11-20T15:11:41.239Z,5
2018-11-20T15:12:30.810Z,5
2018-11-20T15:13:21.359Z,5
2018-11-20T15:14:11.007Z,5
2018-11-20T15:15:01.647Z,5
2018-11-20T15:15:50.662Z,5
2018-11-20T15:16:41.199Z,5
2018-11-20T15:17:31.276Z,5
2018-11-20T15:18:21.681Z,5
2018-11-20T15:19:11.189Z,5
2018-11-20T15:20:01.691Z,5
2018-11-20T15:20:51.503Z,5
2018-11-20T15:21:41.566Z,5
2018-11-20T15:22:31.933Z,5
2018-11-20T15:23:21.928Z,5
2018-11-20T15:24:11.736Z,5
2018-11-20T15:25:02.571Z,5
2018-11-20T15:25:52.114Z,5
2018-11-20T15:26:41.419Z,5
2018-11-20T15:27:31.948Z,5
2018-11-20T15:28:22.272Z,5
2018-11-20T15:29:12.101Z,5
2018-11-20T15:30:01.857Z,5
2018-11-20T15:31:06.902Z,5
2018-11-20T15:31:42.053Z,5
2018-11-20T15:32:33.279Z,5
2018-11-20T15:33:22.699Z,5
2018-11-20T15:34:12.443Z,4.9
2018-11-20T15:35:03.035Z,4.9
2018-11-20T15:35:51.953Z,5
2018-11-20T15:36:42.948Z,5
2018-11-20T15:37:32.646Z,5
2018-11-20T15:38:22.605Z,5
2018-11-20T15:39:12.585Z,5
2018-11-20T15:40:03.210Z,5
2018-11-20T15:40:52.957Z,5
2018-11-20T15:41:43.915Z,5
2018-11-20T15:42:33.229Z,5
2018-11-20T15:43:23.069Z,5
2018-11-20T15:44:12.830Z,5
2018-11-20T15:45:03.917Z,5
2018-11-20T15:45:53.532Z,5
2018-11-20T15:46:58.500Z,5
2018-11-20T15:47:33.047Z,5
2018-11-20T15:48:23.588Z,5
2018-11-20T15:49:14.022Z,4.9
2018-11-20T15:50:03.951Z,5
2018-11-20T15:50:53.587Z,5
2018-11-20T15:51:43.669Z,5
2018-11-20T15:52:34.240Z,5
2018-11-20T15:53:24.029Z,5
2018-11-20T15:54:14.392Z,5
2018-11-20T15:55:04.088Z,5
2018-11-20T15:55:53.711Z,4.9
2018-11-20T15:56:44.309Z,4.9
2018-11-20T15:57:34.319Z,4.9
2018-11-20T15:58:25.204Z,5
2018-11-20T15:59:13.902Z,5
2018-11-20T16:00:04.650Z,4.9
2018-11-20T16:00:54.908Z,5
2018-11-20T16:01:44.646Z,5
2018-11-20T16:02:34.959Z,4.9
2018-11-20T16:03:26.011Z,5
2018-11-20T16:04:14.801Z,5
2018-11-20T16:05:04.288Z,5
2018-11-20T16:05:56.305Z,5
2018-11-20T16:06:44.405Z,5
2018-11-20T16:07:35.075Z,4.9
2018-11-20T16:08:24.881Z,5
2018-11-20T16:09:16.048Z,5
2018-11-20T16:10:04.936Z,5
2018-11-20T16:10:54.703Z,5.1
2018-11-20T16:11:45.040Z,5.1
2018-11-20T16:12:51.528Z,5.1
2018-11-20T16:13:24.578Z,5.1
2018-11-20T16:14:15.522Z,5
2018-11-20T16:15:05.290Z,5
2018-11-20T16:15:55.846Z,5
2018-11-20T16:16:45.605Z,5
2018-11-20T16:17:35.530Z,5
2018-11-20T16:18:25.533Z,5
2018-11-20T16:19:14.860Z,5
2018-11-20T16:20:19.716Z,4.9
2018-11-20T16:21:10.337Z,5
2018-11-20T16:21:46.047Z,5
2018-11-20T16:22:36.075Z,5
2018-11-20T16:23:25.912Z,5.1
2018-11-20T16:24:16.178Z,5
2018-11-20T16:25:05.693Z,5
2018-11-20T16:25:56.048Z,5
2018-11-20T16:26:46.557Z,5
2018-11-20T16:27:36.636Z,5
2018-11-20T16:29:16.266Z,5
2018-11-20T16:30:05.816Z,5
2018-11-20T16:30:56.450Z,5
2018-11-20T16:31:46.560Z,5
2018-11-20T16:32:36.778Z,5
2018-11-20T16:33:26.274Z,5
2018-11-20T16:34:16.564Z,5.1
2018-11-20T16:35:06.134Z,5.1
2018-11-20T16:35:57.009Z,5.1
2018-11-20T16:36:46.802Z,5.1
2018-11-20T16:37:37.335Z,5
2018-11-20T16:38:27.222Z,5.1
2018-11-20T16:39:17.854Z,5.1
2018-11-20T16:40:06.656Z,5.1
2018-11-20T16:41:12.271Z,5
2018-11-20T16:41:46.927Z,5
2018-11-20T16:42:36.983Z,5
2018-11-20T16:43:27.446Z,5.1
2018-11-20T16:44:17.411Z,5.1
2018-11-20T16:45:07.574Z,5.1
2018-11-20T16:45:57.956Z,5.1
2018-11-20T16:46:47.476Z,5.1
2018-11-20T16:47:37.159Z,5.1
2018-11-20T16:48:26.820Z,5.1
2018-11-20T16:49:17.273Z,5.1